Seward, NE (68434)

9:58 AM CDT on May 23, 2015 (GMT -0500)
Suhr Lichty Insurance Downtown | | Change Station
CLOSE
Current Station
Personal Weather Station
Location: Seward, NE
Elevation: 1493 ft
Nearby Weather Stations

Elev 1493 ft 40.91 °N, 97.10 °W | Updated 7 minutes ago

Overcast
Overcast
55.8 °F
Feels Like 55.8 °F
N
3.0
Wind Variable Wind from East
Gusts 7.0 mph

Today
High -- | Low -- °F
--% Chance of Precip.
Yesterday
High -- | Low -- °F
Precip. -- in
6:04 AM 8:46 PM
Waxing Crescent, 30% visible
Pressure 30.19 in
Visibility 2.5 miles
Clouds Overcast 800 ft
Dew Point 53 °F
Humidity 90%
Rainfall 0.00 in
Snow Depth Not available.
UV 2 out of 12
Pollen 5.80 out of 12
Air Quality Not available.
Flu Activity No Activity
SPECI KLNK 231441Z 15011KT 2 1/2SM BR OVC008 14/13 A3019 RMK AO2 CIG 005V012 T01390128

More Conditions Fewer Conditions

Pressure 30.19 in
Visibility 2.5 miles
Clouds Overcast 800 ft
Dew Point 53 °F
Humidity 90%
Rainfall 0.00 in
Snow Depth Not available.
UV 2 out of 12
Pollen 5.80 out of 12
Air Quality Not available.
Flu Activity No Activity
SPECI KLNK 231441Z 15011KT 2 1/2SM BR OVC008 14/13 A3019 RMK AO2 CIG 005V012 T01390128

More Conditions Fewer Conditions

10-Day Weather Forecast

Almanac

Astronomy

May. 23, 2015 Rise Set
Actual Time
Civil Twilight
Nautical Twilight
Astronomical Twilight
Moon
Length of Visible Light
Length of Day
Tomorrow will be .
, % of the Moon is Illuminated

Today's Extremes

State Highs State Lows

Community

WunderPhotos

Upload Photos

1,823,480 photos uploaded!

WunderBlogs® & News

Nearby

Air Quality

  Air Quality AQ Index Pollutant
Not available.

Snow Depth

Station Depth Elevation

Earthquake Activity

City Distance Mag. Time & Date
Minimum magnitude displayed is 2.5.

Coastal Water Temperatures

Place Temperature

Stations

Nearby Weather Stations

Station Location Temp. Windchill Dew Point Humidity Wind Precip. Elev Updated Type